National Weather Service United States Department of Commerce
Click Here for Latest Airport Weather Warnings
 
Latest Huntsville TAF


000
FTUS44 KHUN 080520
TAFHSV
TAF
KHSV 080520Z 0806/0906 12006KT P6SM BKN050
FM081200 12007KT P6SM BKN019
FM082200 15012G20KT P6SM BKN030 PROB30 0822/0904 4SM -SHRA BR
OVC015
FM090400 16018G27KT P6SM BKN035 PROB30 0904/0906 4SM -SHRA BR
OVC025=

Latest Muscle Shoals TAF


000
FTUS44 KHUN 080520
TAFMSL
TAF
KMSL 080520Z 0806/0906 VRB04KT P6SM BKN045
FM081500 13008KT P6SM OVC010
FM082200 15013G20KT P6SM BKN035 PROB30 0822/0904 4SM TSRA BR
OVC025CB
FM090400 16018G29KT 6SM -SHRA BR BKN026 PROB30 0904/0906 4SM
TSRA BR OVC015CB=


Back to Main Huntsville Weather Forecast Office Page